Time;durP1;ratioP1;P1;durP2;ratioP2;P2;SDS_P1;SDS_P2;PMS_P1;PMS_P2;Temp;Humidity;BMP_temperature;BMP_pressure;BME280_temperature;BME280_humidity;BME280_pressure;Samples;Min_cycle;Max_cycle;Signal;HPM_P1;HPM_P2
2022/08/02 00:00:37;;;;;;;7.13;3.53;;;22.40;88.60;;;22.28;100.00;100621.44;5030173;28;20033;-76
2022/08/02 00:03:04;;;;;;;6.05;3.63;;;22.40;89.30;;;22.33;100.00;100610.41;5013485;28;20060;-76
2022/08/02 00:05:31;;;;;;;6.65;3.92;;;22.30;88.80;;;22.23;100.00;100618.19;5045818;28;20610;-76
2022/08/02 00:07:58;;;;;;;5.20;4.22;;;22.30;89.00;;;22.17;100.00;100618.63;5029471;28;20053;-76
2022/08/02 00:10:25;;;;;;;5.72;3.90;;;22.20;90.10;;;22.14;100.00;100618.84;5030373;28;20553;-77
2022/08/02 00:12:52;;;;;;;4.93;4.10;;;22.20;90.10;;;22.10;100.00;100621.75;5029565;28;20049;-77
2022/08/02 00:15:21;;;;;;;5.60;3.92;;;22.20;90.10;;;22.14;100.00;100613.50;5045985;28;20898;-77
2022/08/02 00:17:48;;;;;;;6.80;4.20;;;22.10;90.20;;;22.07;100.00;100613.91;5036329;28;20037;-77
2022/08/02 00:20:16;;;;;;;5.45;3.92;;;22.10;90.20;;;22.03;100.00;100606.22;5049858;28;20140;-76
2022/08/02 00:22:44;;;;;;;4.97;4.57;;;22.10;90.30;;;22.00;100.00;100611.75;5033060;28;20052;-76
2022/08/02 00:25:11;;;;;;;3.97;3.53;;;22.10;90.30;;;21.90;100.00;100612.41;5049078;28;20102;-77
2022/08/02 00:27:38;;;;;;;6.63;4.28;;;22.00;90.20;;;21.86;100.00;100613.59;5032015;28;20409;-76
2022/08/02 00:30:05;;;;;;;6.35;4.00;;;21.90;90.50;;;21.83;100.00;100618.28;5048310;28;20442;-76
2022/08/02 00:32:32;;;;;;;4.28;3.88;;;21.90;90.50;;;21.73;100.00;100613.53;5049345;28;20039;-76
2022/08/02 00:34:59;;;;;;;5.97;3.95;;;22.00;90.60;;;21.77;100.00;100612.34;5050167;28;20051;-76
2022/08/02 00:37:26;;;;;;;3.90;3.53;;;21.80;90.70;;;21.86;100.00;100610.03;5048398;28;20052;-76
2022/08/02 00:39:56;;;;;;;8.00;4.35;;;21.80;90.60;;;21.76;100.00;100616.00;5048655;28;20176;-76
2022/08/02 00:42:23;;;;;;;7.30;4.50;;;21.80;90.80;;;21.74;100.00;100617.91;5050366;28;20040;-76
2022/08/02 00:44:50;;;;;;;7.53;4.20;;;21.70;90.80;;;21.78;100.00;100622.13;5048914;28;20041;-77
2022/08/02 00:47:17;;;;;;;5.38;3.70;;;21.70;90.90;;;21.64;100.00;100628.34;5049248;28;20041;-76
2022/08/02 00:49:46;;;;;;;5.88;3.95;;;21.70;91.10;;;21.68;100.00;100629.06;5048484;28;20041;-76
2022/08/02 00:52:13;;;;;;;4.65;4.00;;;21.70;91.00;;;21.73;100.00;100626.91;5045593;28;20045;-76
2022/08/02 00:54:41;;;;;;;4.70;4.20;;;21.70;91.00;;;21.83;100.00;100635.19;5028638;28;20084;-76
2022/08/02 00:57:08;;;;;;;5.55;3.63;;;21.70;91.00;;;21.87;100.00;100630.50;5029091;28;20037;-76
2022/08/02 00:59:35;;;;;;;6.63;4.47;;;21.70;91.00;;;21.84;100.00;100638.75;5027980;28;20054;-75
2022/08/02 01:02:02;;;;;;;4.95;3.85;;;21.70;90.90;;;21.70;100.00;100640.53;5062007;28;20056;-76
2022/08/02 01:04:29;;;;;;;4.55;4.15;;;21.70;91.00;;;21.60;100.00;100650.06;5011659;28;20049;-76
2022/08/02 01:07:02;;;;;;;4.55;3.95;;;21.70;91.10;;;21.51;100.00;100657.78;5028510;28;20832;-76
2022/08/02 01:09:43;;;;;;;4.70;3.78;;;21.60;91.00;;;21.44;100.00;100660.94;5046073;28;20049;-76
2022/08/02 01:12:11;;;;;;;6.97;4.03;;;21.50;91.20;;;21.29;100.00;100652.97;5045062;28;20060;-76
2022/08/02 01:14:42;;;;;;;5.13;4.38;;;21.40;91.60;;;21.19;100.00;100652.69;5028282;28;20049;-76
2022/08/02 01:17:14;;;;;;;;;;;21.30;91.90;;;21.06;100.00;100652.59;5028770;28;20128;-76
2022/08/02 01:20:02;;;;;;;4.65;3.95;;;21.30;92.10;;;21.02;100.00;100652.94;5011627;28;19925;-76
2022/08/02 01:23:10;;;;;;;5.35;4.32;;;21.20;92.40;;;20.93;100.00;100655.22;5041099;28;20037;-77
2022/08/02 01:26:08;;;;;;;4.88;4.38;;;21.10;92.50;;;21.01;100.00;100661.91;5029341;28;20568;-76
2022/08/02 01:28:52;;;;;;;4.50;4.07;;;21.00;92.30;;;20.96;100.00;100664.88;5044592;28;20045;-76
2022/08/02 01:31:40;;;;;;;4.78;4.28;;;21.00;92.50;;;20.95;100.00;100669.34;5028244;28;20047;-76
2022/08/02 01:34:32;;;;;;;6.10;4.35;;;21.00;92.60;;;20.94;100.00;100667.63;5029159;28;20049;-76
2022/08/02 01:37:42;;;;;;;5.50;3.70;;;21.00;92.60;;;20.97;100.00;100662.06;5029271;28;20049;-77
2022/08/02 01:40:15;;;;;;;4.30;3.90;;;21.00;92.60;;;21.04;100.00;100667.06;5027121;28;20053;-76
2022/08/02 01:42:51;;;;;;;4.28;3.63;;;21.00;92.90;;;21.03;100.00;100673.38;5028088;28;20405;-76
2022/08/02 01:45:20;;;;;;;5.55;4.32;;;21.00;93.00;;;20.92;100.00;100674.88;5011593;28;20033;-77
2022/08/02 01:47:49;;;;;;;4.07;3.65;;;21.00;93.10;;;20.93;100.00;100667.75;5027617;28;20033;-76
2022/08/02 01:50:22;;;;;;;4.70;4.30;;;21.00;93.00;;;20.82;100.00;100669.25;5026961;28;20421;-76
2022/08/02 01:52:54;;;;;;;4.05;3.75;;;20.90;93.30;;;20.88;100.00;100668.03;5042018;28;20064;-76
2022/08/02 01:55:50;;;;;;;4.55;3.35;;;20.90;93.30;;;20.85;100.00;100673.56;5047293;28;20045;-76
2022/08/02 01:58:28;;;;;;;4.30;3.45;;;20.90;93.40;;;20.83;100.00;100665.63;5034782;28;20045;-77
2022/08/02 02:00:57;;;;;;;6.15;4.00;;;20.90;93.40;;;20.87;100.00;100668.97;5046700;28;20106;-77
2022/08/02 02:03:26;;;;;;;6.10;4.10;;;20.90;93.40;;;20.85;100.00;100665.56;5030566;28;20045;-76
2022/08/02 02:05:57;;;;;;;5.35;4.43;;;20.90;93.50;;;20.92;100.00;100658.00;5030740;28;20090;-76
2022/08/02 02:08:32;;;;;;;6.85;4.40;;;20.90;93.60;;;20.85;100.00;100662.88;5031055;28;20072;-76
2022/08/02 02:11:01;;;;;;;5.13;4.40;;;20.90;93.80;;;20.81;100.00;100653.31;5046854;28;20687;-76
2022/08/02 02:13:49;;;;;;;4.68;4.15;;;20.80;93.80;;;20.81;100.00;100654.19;5047294;28;20066;-77
2022/08/02 02:16:18;;;;;;;4.88;4.28;;;20.80;93.80;;;20.79;100.00;100647.16;5030700;28;20476;-76
2022/08/02 02:18:47;;;;;;;4.38;3.97;;;20.80;93.90;;;20.75;100.00;100651.00;5046873;28;20413;-76
2022/08/02 02:21:15;;;;;;;5.97;4.55;;;20.80;94.00;;;20.83;100.00;100654.06;5029949;28;20068;-76
2022/08/02 02:23:42;;;;;;;4.68;4.28;;;20.80;93.80;;;20.72;100.00;100653.88;5046560;28;20059;-76
2022/08/02 02:26:14;;;;;;;5.03;4.32;;;20.80;93.90;;;20.57;100.00;100647.66;5046514;28;20437;-76
2022/08/02 02:28:46;;;;;;;5.82;4.15;;;20.70;94.20;;;20.49;100.00;100650.78;5046841;28;20048;-76
2022/08/02 02:31:18;;;;;;;4.35;3.90;;;20.70;94.50;;;20.49;100.00;100650.78;5046944;28;20072;-76
2022/08/02 02:33:50;;;;;;;6.25;4.18;;;20.60;94.50;;;20.42;100.00;100654.81;5046626;28;20067;-76
2022/08/02 02:36:20;;;;;;;4.82;4.28;;;20.60;94.80;;;20.36;100.00;100648.00;5030131;28;20041;-76
2022/08/02 02:38:49;;;;;;;4.20;3.80;;;20.50;94.90;;;20.24;100.00;100655.81;5046617;28;20041;-77
2022/08/02 02:41:19;;;;;;;6.35;4.20;;;20.40;94.90;;;20.22;100.00;100649.72;5048892;28;20052;-77
2022/08/02 02:43:47;;;;;;;6.20;4.18;;;20.40;95.10;;;20.37;100.00;100655.94;5047763;28;20045;-77
2022/08/02 02:46:16;;;;;;;7.30;4.45;;;20.30;94.90;;;20.53;100.00;100663.88;5032147;28;20037;-77
2022/08/02 02:48:43;;;;;;;7.03;4.30;;;20.40;94.90;;;20.47;100.00;100656.25;5048411;28;20048;-78
2022/08/02 02:51:12;;;;;;;4.88;4.38;;;20.40;95.10;;;20.51;100.00;100657.75;5032045;28;20398;-79
2022/08/02 02:53:42;;;;;;;6.10;4.80;;;20.40;94.80;;;20.54;100.00;100652.22;5030371;28;20046;-77
2022/08/02 02:56:29;;;;;;;4.80;4.40;;;20.40;94.70;;;20.55;100.00;100656.63;5016862;28;20045;-78
2022/08/02 02:58:59;;;;;;;7.85;4.57;;;20.50;94.50;;;20.54;100.00;100659.41;5030367;28;20057;-77
2022/08/02 03:01:27;;;;;;;5.15;4.05;;;20.50;94.50;;;20.57;100.00;100664.56;5030897;28;20045;-77
2022/08/02 03:04:15;;;;;;;6.93;5.18;;;20.50;94.30;;;20.52;100.00;100670.19;5031971;28;20045;-77
2022/08/02 03:06:42;;;;;;;5.95;5.00;;;20.50;94.40;;;20.57;100.00;100669.91;5028979;28;20033;-77
2022/08/02 03:09:10;;;;;;;5.70;4.70;;;20.60;94.40;;;20.61;100.00;100670.56;5030274;28;20048;-77
2022/08/02 03:11:38;;;;;;;5.65;4.45;;;20.50;94.30;;;20.44;100.00;100677.78;5011624;28;20128;-77
2022/08/02 03:14:10;;;;;;;6.07;4.32;;;20.50;94.30;;;20.49;100.00;100682.84;5012661;28;20053;-77
2022/08/02 03:16:49;;;;;;;6.63;4.57;;;20.50;94.40;;;20.45;100.00;100674.19;5028027;28;20072;-78
2022/08/02 03:19:18;;;;;;;5.00;4.43;;;20.50;94.60;;;20.40;100.00;100677.13;4995115;28;20152;-77
2022/08/02 03:21:47;;;;;;;5.25;4.75;;;20.40;94.60;;;20.47;100.00;100682.97;5028295;28;20045;-76
2022/08/02 03:24:23;;;;;;;5.47;4.70;;;20.50;94.60;;;20.37;100.00;100674.66;5028275;28;20690;-77
2022/08/02 03:26:54;;;;;;;5.57;4.70;;;20.40;94.60;;;20.48;100.00;100676.66;5012667;28;20471;-77
2022/08/02 03:29:21;;;;;;;5.38;4.32;;;20.40;94.60;;;20.44;100.00;100680.47;5027686;28;20046;-78
2022/08/02 03:31:49;;;;;;;6.30;3.97;;;20.40;94.60;;;20.39;100.00;100677.22;5028172;28;20045;-77
2022/08/02 03:34:16;;;;;;;5.95;4.15;;;20.40;94.60;;;20.35;100.00;100676.53;5030520;28;20046;-78
2022/08/02 03:36:47;;;;;;;4.45;4.05;;;20.40;94.70;;;20.33;100.00;100682.94;5029435;28;20834;-78
2022/08/02 03:39:15;;;;;;;5.88;4.97;;;20.40;94.70;;;20.30;100.00;100683.13;5028657;28;20053;-78
2022/08/02 03:41:42;;;;;;;4.72;4.22;;;20.30;94.70;;;20.23;100.00;100678.13;5029450;28;20148;-78
2022/08/02 03:44:11;;;;;;;4.97;4.50;;;20.30;94.70;;;20.24;100.00;100677.19;5030626;28;20097;-78
2022/08/02 03:46:39;;;;;;;5.50;4.53;;;20.30;94.90;;;20.16;100.00;100676.81;5045485;28;20101;-78
2022/08/02 03:49:11;;;;;;;5.78;4.00;;;20.30;95.00;;;20.13;100.00;100679.63;5029910;28;20051;-78
2022/08/02 03:51:38;;;;;;;5.18;4.47;;;20.20;94.90;;;20.03;100.00;100681.16;5030564;28;20044;-78
2022/08/02 03:54:06;;;;;;;5.05;4.40;;;20.20;95.10;;;19.80;100.00;100681.50;5030800;28;20046;-78
2022/08/02 03:56:33;;;;;;;7.43;4.60;;;20.10;95.40;;;19.77;100.00;100686.16;5031766;28;20042;-78
2022/08/02 03:59:09;;;;;;;5.10;4.60;;;20.00;95.50;;;19.89;100.00;100690.78;5032856;28;20060;-78
2022/08/02 04:01:36;;;;;;;5.10;4.45;;;19.90;95.40;;;19.83;100.00;100691.16;5031698;28;20449;-78
2022/08/02 04:04:05;;;;;;;5.53;4.75;;;20.00;95.60;;;19.97;100.00;100688.53;5036522;28;20424;-78
2022/08/02 04:06:32;;;;;;;5.13;4.50;;;19.90;95.60;;;20.02;100.00;100684.78;5034404;28;20517;-78
2022/08/02 04:09:00;;;;;;;6.63;4.68;;;20.00;95.50;;;19.91;100.00;100686.22;5016484;28;20042;-78
2022/08/02 04:11:30;;;;;;;4.68;4.28;;;20.10;95.70;;;19.98;100.00;100690.28;5016219;28;20072;-78
2022/08/02 04:13:59;;;;;;;;;;;20.00;95.60;;;20.12;100.00;100694.81;5016584;28;20482;-78
2022/08/02 04:16:52;;;;;;;6.00;4.85;;;20.00;95.50;;;19.94;100.00;100696.75;5035603;28;19935;-78
2022/08/02 04:19:32;;;;;;;5.35;4.93;;;20.00;95.70;;;19.92;100.00;100695.13;5029049;28;20136;-78
2022/08/02 04:22:05;;;;;;;5.68;4.80;;;20.00;95.70;;;20.13;100.00;100698.31;5037042;28;20064;-77
2022/08/02 04:24:43;;;;;;;5.13;4.47;;;20.00;95.60;;;20.07;100.00;100694.22;5032012;28;20037;-78
2022/08/02 04:27:12;;;;;;;6.10;4.93;;;20.00;95.70;;;19.94;100.00;100682.53;5036670;28;20048;-78
2022/08/02 04:30:00;;;;;;;8.60;4.82;;;20.00;95.60;;;19.98;100.00;100692.09;5030783;28;20045;-77
2022/08/02 04:32:27;;;;;;;5.10;4.70;;;20.00;95.60;;;19.96;100.00;100696.66;5021620;28;20502;-78
2022/08/02 04:34:55;;;;;;;5.78;4.88;;;20.00;95.70;;;19.91;100.00;100702.22;5032596;28;20056;-78
2022/08/02 04:37:43;;;;;;;4.95;4.32;;;20.00;95.70;;;19.92;100.00;100692.47;5036477;28;20055;-78
2022/08/02 04:40:31;;;;;;;5.35;4.57;;;20.00;95.60;;;19.87;100.00;100698.03;5006027;28;20497;-81
2022/08/02 04:42:58;;;;;;;6.78;4.82;;;19.90;95.70;;;19.92;100.00;100706.66;4999309;28;20108;-77
2022/08/02 04:45:28;;;;;;;5.90;4.75;;;19.90;95.70;;;19.94;100.00;100702.09;5029325;28;20544;-77
2022/08/02 04:47:55;;;;;;;7.47;4.20;;;20.00;95.90;;;19.90;100.00;100705.84;5043136;28;20045;-76
2022/08/02 04:50:31;;;;;;;5.53;5.00;;;19.90;96.00;;;19.92;100.00;100701.31;5032246;28;20052;-76
2022/08/02 04:52:58;;;;;;;5.43;4.93;;;19.90;96.00;;;19.94;100.00;100699.41;5044235;28;20059;-77
2022/08/02 04:55:27;;;;;;;10.70;5.20;;;20.00;95.80;;;19.95;100.00;100708.31;5048799;28;20049;-77
2022/08/02 04:57:56;;;;;;;8.48;5.90;;;20.00;95.90;;;20.01;100.00;100712.44;5050667;28;20140;-76
2022/08/02 05:00:26;;;;;;;6.55;5.20;;;20.00;96.00;;;20.11;100.00;100710.91;5035601;28;20045;-78
2022/08/02 05:02:57;;;;;;;10.20;5.82;;;20.00;95.80;;;20.09;100.00;100710.16;5037277;28;20048;-78
2022/08/02 05:05:25;;;;;;;15.15;5.72;;;20.10;95.90;;;20.12;100.00;100716.19;5053434;28;20591;-78
2022/08/02 05:07:53;;;;;;;13.55;5.00;;;20.10;95.80;;;20.11;100.00;100703.78;5036806;28;20037;-78
2022/08/02 05:10:21;;;;;;;9.05;5.40;;;20.10;95.80;;;20.12;100.00;100709.97;5035850;28;20041;-78
2022/08/02 05:12:48;;;;;;;5.97;5.35;;;20.10;95.80;;;20.07;100.00;100709.38;5033620;28;20049;-77
2022/08/02 05:15:17;;;;;;;6.88;5.68;;;20.10;96.00;;;20.03;100.00;100708.69;5034177;28;20060;-78
2022/08/02 05:17:46;;;;;;;7.32;5.20;;;20.10;96.20;;;20.06;100.00;100708.53;5034487;28;20053;-78
2022/08/02 05:20:17;;;;;;;;;;;20.10;96.10;;;20.12;100.00;100707.28;5018852;28;20045;-78
2022/08/02 05:22:45;;;;;;;7.13;5.30;;;20.10;96.10;;;20.12;100.00;100704.63;5053015;28;19995;-78
2022/08/02 05:25:13;;;;;;;5.53;4.72;;;20.10;96.10;;;20.19;100.00;100703.31;5056546;28;20063;-77
2022/08/02 05:27:41;;;;;;;5.68;5.07;;;20.20;96.20;;;20.35;100.00;100708.59;5055346;28;20051;-78
2022/08/02 05:30:09;;;;;;;8.13;4.97;;;20.20;96.00;;;20.36;100.00;100706.81;5036174;28;20041;-77
2022/08/02 05:32:47;;;;;;;9.15;4.90;;;20.30;96.00;;;20.42;100.00;100700.22;5014047;28;20049;-77
2022/08/02 05:35:23;;;;;;;6.10;5.50;;;20.30;96.00;;;20.46;100.00;100705.31;5030362;28;20052;-77
2022/08/02 05:37:51;;;;;;;4.93;4.22;;;20.40;96.00;;;20.54;100.00;100711.03;5030088;28;20096;-77
2022/08/02 05:40:18;;;;;;;6.93;5.90;;;20.40;96.00;;;20.67;100.00;100715.63;5013528;28;20413;-77
2022/08/02 05:42:53;;;;;;;5.50;4.93;;;20.50;96.00;;;20.81;100.00;100720.16;5014021;28;20053;-77
2022/08/02 05:45:21;;;;;;;5.80;5.00;;;20.60;95.80;;;20.88;100.00;100713.47;5029912;28;20060;-78
2022/08/02 05:47:48;;;;;;;7.30;5.18;;;20.70;95.80;;;20.86;100.00;100718.06;5031267;28;20406;-77
2022/08/02 05:50:15;;;;;;;6.00;5.38;;;20.70;95.80;;;20.92;100.00;100720.34;5042823;28;20041;-77
2022/08/02 05:52:55;;;;;;;6.35;5.25;;;20.80;95.70;;;20.97;100.00;100726.25;5013179;28;20057;-77
2022/08/02 05:55:32;;;;;;;6.00;5.35;;;20.80;95.70;;;20.80;100.00;100738.03;5013080;28;20049;-79
2022/08/02 05:58:29;;;;;;;6.13;5.28;;;20.90;95.70;;;20.65;100.00;100731.75;5029396;28;20045;-80
2022/08/02 06:01:02;;;;;;;6.13;4.55;;;20.80;95.90;;;20.68;100.00;100728.03;5045469;28;20055;-81
2022/08/02 06:03:55;;;;;;;5.20;4.68;;;20.80;95.90;;;20.72;100.00;100718.03;5015591;28;20071;-77
2022/08/02 06:06:25;;;;;;;6.50;4.68;;;20.80;96.00;;;20.75;100.00;100716.00;5014714;28;20045;-78
2022/08/02 06:09:02;;;;;;;;;;;20.80;96.10;;;20.84;100.00;100722.66;5029717;28;20510;-79
2022/08/02 06:11:42;;;;;;;6.15;4.28;;;20.90;96.10;;;21.00;100.00;100721.72;5029240;28;20480;-79
2022/08/02 06:14:31;;;;;;;5.68;5.10;;;20.90;96.10;;;20.95;100.00;100727.34;5033059;28;20041;-80
2022/08/02 06:17:04;;;;;;;5.30;4.70;;;21.00;96.20;;;21.05;100.00;100720.44;5015017;28;20045;-81
2022/08/02 06:19:32;;;;;;;5.97;5.10;;;21.30;96.10;;;20.99;100.00;100722.63;5015155;28;20085;-81
2022/08/02 06:22:19;;;;;;;6.32;4.75;;;21.00;96.10;;;21.03;100.00;100724.19;5031096;28;20557;-78
2022/08/02 06:25:01;;;;;;;6.15;5.07;;;21.10;96.30;;;21.23;100.00;100733.63;5014892;28;20045;-78
2022/08/02 06:27:30;;;;;;;5.90;4.90;;;21.10;96.00;;;21.33;100.00;100733.91;5028838;28;20034;-78
2022/08/02 06:29:57;;;;;;;8.27;5.35;;;21.20;96.10;;;21.26;100.00;100738.78;4996426;28;20426;-79
2022/08/02 06:32:27;;;;;;;5.35;4.82;;;21.20;96.00;;;21.43;100.00;100747.56;5028637;28;20141;-78
2022/08/02 06:34:54;;;;;;;6.28;5.68;;;21.30;95.90;;;21.45;100.00;100738.44;5012186;28;20116;-78
2022/08/02 06:37:43;;;;;;;5.97;5.38;;;21.30;95.90;;;21.59;100.00;100734.91;5011958;28;20076;-78
2022/08/02 06:40:30;;;;;;;5.60;5.07;;;21.40;95.70;;;21.66;100.00;100736.25;5028128;28;20055;-79
2022/08/02 06:43:11;;;;;;;7.35;5.03;;;21.40;95.50;;;21.63;100.00;100730.22;5011311;28;20077;-79
2022/08/02 06:45:39;;;;;;;6.45;4.88;;;21.60;95.20;;;21.69;100.00;100735.19;4998342;28;20054;-77
2022/08/02 06:48:08;;;;;;;5.53;5.03;;;21.40;95.10;;;21.86;100.00;100731.41;5012989;28;20052;-76
2022/08/02 06:50:40;;;;;;;6.55;5.55;;;21.60;95.00;;;21.99;100.00;100731.47;5013052;28;20049;-78
2022/08/02 06:53:10;;;;;;;6.93;5.03;;;21.70;94.90;;;22.09;100.00;100729.88;5045828;28;20132;-78
2022/08/02 06:55:37;;;;;;;6.70;5.60;;;21.80;94.90;;;22.08;100.00;100736.19;5031685;28;20045;-77
2022/08/02 06:58:11;;;;;;;5.45;4.95;;;21.90;95.00;;;22.15;100.00;100738.47;5027341;28;20049;-78
2022/08/02 07:00:42;;;;;;;6.68;5.47;;;22.00;94.50;;;22.22;100.00;100745.13;5011275;28;20049;-77
2022/08/02 07:03:09;;;;;;;6.93;5.53;;;22.00;94.40;;;22.11;100.00;100740.50;5012058;28;20041;-80
2022/08/02 07:05:36;;;;;;;8.95;5.88;;;22.10;94.30;;;22.15;100.00;100728.59;5027218;28;20048;-79
2022/08/02 07:08:04;;;;;;;6.22;4.68;;;22.10;94.10;;;22.15;100.00;100730.44;5010804;28;20132;-80
2022/08/02 07:10:31;;;;;;;5.80;5.07;;;22.40;94.30;;;22.27;100.00;100740.31;5027523;28;20088;-79
2022/08/02 07:12:58;;;;;;;6.03;5.07;;;22.10;94.30;;;22.47;100.00;100747.03;5032177;28;20648;-79
2022/08/02 07:15:26;;;;;;;6.85;5.05;;;22.70;94.50;;;22.49;100.00;100746.94;5028772;28;20087;-82
2022/08/02 07:17:53;;;;;;;6.68;4.95;;;22.20;94.10;;;22.45;100.00;100734.69;4995136;28;20499;-81
2022/08/02 07:20:20;;;;;;;5.00;4.50;;;22.40;93.90;;;22.53;100.00;100748.44;5009933;28;20502;-81
2022/08/02 07:22:47;;;;;;;9.13;4.75;;;22.40;93.70;;;22.48;100.00;100739.84;5007820;28;20543;-81
2022/08/02 07:25:14;;;;;;;6.45;4.53;;;22.50;93.60;;;22.70;100.00;100749.94;5029740;28;20080;-81
2022/08/02 07:27:41;;;;;;;7.63;5.18;;;22.50;93.50;;;22.78;100.00;100739.53;5030397;28;20033;-80
2022/08/02 07:30:09;;;;;;;5.93;4.18;;;22.50;93.40;;;22.95;100.00;100738.38;5029259;28;20037;-80
2022/08/02 07:32:37;;;;;;;4.95;4.30;;;22.60;93.40;;;23.10;100.00;100743.59;5045776;28;20057;-80
2022/08/02 07:35:06;;;;;;;5.45;4.10;;;22.80;93.30;;;23.11;100.00;100736.44;5044646;28;20049;-79
2022/08/02 07:37:35;;;;;;;4.97;4.40;;;22.80;93.20;;;23.23;100.00;100739.09;5035699;28;20437;-80
2022/08/02 07:40:23;;;;;;;5.18;4.00;;;22.90;93.20;;;23.28;100.00;100735.22;5031435;28;20045;-79
2022/08/02 07:42:53;;;;;;;4.25;3.85;;;23.00;92.70;;;23.25;100.00;100733.59;5047472;28;20073;-80
2022/08/02 07:45:30;;;;;;;5.50;3.15;;;23.10;92.50;;;23.41;100.00;100738.75;5047172;28;20079;-80
2022/08/02 07:47:57;;;;;;;3.47;3.17;;;23.10;92.10;;;23.51;100.00;100731.75;5031625;28;20038;-79
2022/08/02 07:50:24;;;;;;;5.18;3.25;;;23.20;92.00;;;23.56;100.00;100722.50;5031417;28;20113;-79
2022/08/02 07:52:51;;;;;;;3.15;2.85;;;23.20;91.60;;;23.62;100.00;100722.03;5051402;28;20128;-79
2022/08/02 07:55:24;;;;;;;3.33;2.83;;;23.30;91.60;;;23.76;100.00;100729.94;5035192;28;20079;-79
2022/08/02 07:58:07;;;;;;;2.70;2.50;;;23.40;91.50;;;23.86;100.00;100731.94;5036395;28;20163;-79
2022/08/02 08:00:41;;;;;;;5.95;3.40;;;23.50;91.20;;;23.94;100.00;100735.75;5050785;28;20125;-80
2022/08/02 08:03:08;;;;;;;2.47;2.27;;;23.50;91.00;;;24.04;100.00;100732.41;5034907;28;20045;-79
2022/08/02 08:05:36;;;;;;;3.20;2.90;;;23.60;91.00;;;24.09;100.00;100727.56;5035193;28;20972;-79
2022/08/02 08:08:04;;;;;;;2.97;2.67;;;23.70;90.90;;;24.15;100.00;100731.63;5051279;28;20091;-79
2022/08/02 08:10:31;;;;;;;4.35;2.67;;;23.80;90.80;;;24.24;100.00;100722.00;5051374;28;20137;-79
2022/08/02 08:12:58;;;;;;;2.65;2.45;;;23.90;90.60;;;24.29;100.00;100717.97;5015112;28;20045;-79
2022/08/02 08:15:25;;;;;;;3.47;2.83;;;23.90;90.60;;;24.30;100.00;100718.81;5048490;28;20100;-80
2022/08/02 08:17:53;;;;;;;4.38;2.85;;;23.90;90.50;;;24.43;100.00;100710.66;5031791;28;20152;-80
2022/08/02 08:20:19;;;;;;;4.72;3.30;;;24.10;90.50;;;24.50;100.00;100712.75;5031358;28;20045;-78
2022/08/02 08:22:46;;;;;;;2.90;2.60;;;24.10;90.60;;;24.56;100.00;100714.09;5031702;28;20048;-80
2022/08/02 08:25:13;;;;;;;6.68;3.08;;;24.20;90.40;;;24.65;100.00;100709.84;5065067;28;20045;-79
2022/08/02 08:27:51;;;;;;;3.63;3.10;;;24.30;90.20;;;24.74;100.00;100708.25;5032470;28;20071;-79
2022/08/02 08:30:21;;;;;;;3.80;2.78;;;24.30;90.20;;;24.76;100.00;100704.50;5050439;28;20048;-81
2022/08/02 08:32:48;;;;;;;3.97;2.97;;;24.40;90.20;;;24.83;100.00;100715.63;5032074;28;20061;-80
2022/08/02 08:35:16;;;;;;;5.03;2.92;;;24.40;90.00;;;24.90;100.00;100711.50;5032738;28;20067;-80
2022/08/02 08:37:43;;;;;;;4.63;2.90;;;24.50;90.10;;;24.95;100.00;100708.41;5032538;28;20072;-80
2022/08/02 08:40:11;;;;;;;3.60;2.75;;;24.60;89.50;;;25.06;100.00;100708.44;5032704;28;20130;-79
2022/08/02 08:42:39;;;;;;;4.68;3.28;;;24.70;89.20;;;25.05;100.00;100708.53;5032673;28;20056;-80
2022/08/02 08:45:08;;;;;;;3.33;2.55;;;24.70;88.70;;;25.18;100.00;100711.13;5032382;28;20053;-80
2022/08/02 08:47:41;;;;;;;3.65;2.40;;;24.80;88.60;;;25.25;100.00;100709.63;5016554;28;20053;-80
2022/08/02 08:50:15;;;;;;;3.35;2.60;;;24.80;88.30;;;25.24;100.00;100702.53;5015269;28;20046;-80
2022/08/02 08:52:55;;;;;;;3.72;2.80;;;24.90;88.10;;;25.11;97.66;100709.88;5017977;28;20053;-80
2022/08/02 08:55:25;;;;;;;4.38;2.30;;;24.90;86.80;;;25.28;100.00;100708.53;5016199;28;20072;-81
2022/08/02 08:57:56;;;;;;;2.80;2.50;;;25.00;87.30;;;25.38;98.07;100697.88;5043131;28;20109;-80
2022/08/02 09:00:23;;;;;;;3.17;2.33;;;25.00;86.90;;;25.45;98.22;100701.78;5024607;28;20486;-80
2022/08/02 09:02:51;;;;;;;2.53;2.33;;;25.10;87.00;;;25.51;97.13;100698.59;5021324;28;20049;-80
2022/08/02 09:05:18;;;;;;;3.53;2.60;;;25.10;86.80;;;25.57;97.00;100699.94;5034740;28;20041;-79
2022/08/02 09:07:50;;;;;;;2.63;2.42;;;25.20;86.80;;;25.59;93.26;100693.41;5048520;28;20045;-78
2022/08/02 09:10:42;;;;;;;2.90;2.40;;;25.20;85.50;;;25.68;93.33;100699.03;5031828;28;20116;-79
2022/08/02 09:13:19;;;;;;;3.30;2.67;;;25.30;85.60;;;25.80;92.58;100699.84;5012800;28;20056;-79
2022/08/02 09:16:06;;;;;;;2.47;2.28;;;25.40;85.60;;;25.85;93.15;100700.34;5028108;28;20846;-78
2022/08/02 09:18:44;;;;;;;2.30;2.10;;;25.40;85.70;;;25.94;90.80;100706.81;5028548;28;20802;-79
2022/08/02 09:21:14;;;;;;;2.72;2.53;;;25.50;85.10;;;25.91;93.21;100713.28;5029365;28;20127;-79
2022/08/02 09:23:45;;;;;;;10.70;3.42;;;25.50;85.50;;;25.98;93.17;100701.00;5031816;28;20493;-79
2022/08/02 09:26:22;;;;;;;2.95;2.55;;;25.60;85.60;;;25.96;94.06;100702.13;5015404;28;20460;-80
2022/08/02 09:28:57;;;;;;;3.90;2.97;;;25.60;85.40;;;25.90;90.68;100707.03;5031414;28;20067;-79
2022/08/02 09:31:25;;;;;;;2.80;2.47;;;25.70;84.80;;;25.98;93.89;100694.75;5032623;28;20045;-80
2022/08/02 09:33:58;;;;;;;2.65;2.42;;;25.70;85.30;;;26.24;90.15;100697.13;5031473;28;20067;-79
2022/08/02 09:36:36;;;;;;;2.85;2.53;;;25.80;84.90;;;26.27;90.47;100691.47;5032148;28;20398;-80
2022/08/02 09:39:06;;;;;;;3.47;3.00;;;25.80;84.90;;;26.38;87.73;100695.94;5016054;28;20059;-79
2022/08/02 09:41:37;;;;;;;3.78;2.22;;;25.90;84.20;;;26.36;87.18;100689.81;5031343;28;20041;-79
2022/08/02 09:44:05;;;;;;;3.63;2.70;;;25.90;83.90;;;26.45;91.23;100686.31;5015446;28;20071;-78
2022/08/02 09:46:39;;;;;;;3.88;2.67;;;26.10;84.70;;;26.59;85.03;100683.25;5031329;28;20049;-79
2022/08/02 09:49:15;;;;;;;3.83;2.83;;;26.10;83.70;;;26.58;85.82;100683.41;5031375;28;20049;-79
2022/08/02 09:51:45;;;;;;;2.80;2.40;;;26.20;83.70;;;26.56;86.23;100680.84;5047864;28;20033;-79
2022/08/02 09:54:28;;;;;;;3.92;2.38;;;26.20;83.90;;;26.43;85.87;100670.28;5047606;28;20048;-79
2022/08/02 09:56:58;;;;;;;3.67;2.97;;;26.20;83.10;;;26.40;86.94;100666.97;5030961;28;20053;-78
2022/08/02 09:59:28;;;;;;;6.30;2.83;;;26.20;83.30;;;26.46;84.23;100675.41;5047145;28;20075;-79
2022/08/02 10:01:57;;;;;;;5.35;3.08;;;26.20;82.70;;;26.50;85.38;100662.50;5031245;28;20077;-78
2022/08/02 10:04:31;;;;;;;5.80;3.10;;;26.20;83.00;;;26.57;84.72;100673.63;5016006;28;20045;-79
2022/08/02 10:07:20;;;;;;;4.15;2.85;;;26.30;83.20;;;26.74;81.76;100677.50;5033624;28;20040;-84
2022/08/02 10:09:49;;;;;;;;;;;26.40;82.50;;;26.77;81.12;100674.53;5015884;28;20041;-83
2022/08/02 10:12:21;;;;;;;3.78;2.88;;;26.40;82.20;;;26.72;80.63;100666.00;5035511;28;19961;-83
2022/08/02 10:14:54;;;;;;;4.03;2.92;;;26.40;81.90;;;26.69;81.27;100666.28;5011363;28;20494;-83
2022/08/02 10:17:22;;;;;;;4.88;2.80;;;26.40;81.90;;;26.56;79.87;100666.50;5012208;28;20046;-83
2022/08/02 10:19:50;;;;;;;3.20;2.88;;;26.40;81.40;;;26.65;78.44;100659.44;5027875;28;20052;-83
2022/08/02 10:22:37;;;;;;;4.30;2.53;;;26.40;81.30;;;26.88;77.98;100676.34;5021304;28;20764;-82
2022/08/02 10:25:07;;;;;;;3.58;2.75;;;26.40;81.40;;;26.95;76.22;100658.59;5010872;28;20590;-83
2022/08/02 10:27:37;;;;;;;2.60;2.40;;;26.50;81.20;;;27.13;74.01;100658.81;5011717;28;20422;-83